Time;durP1;ratioP1;P1;durP2;ratioP2;P2;SDS_P1;SDS_P2;PMS_P1;PMS_P2;Temp;Humidity;BMP_temperature;BMP_pressure;BME280_temperature;BME280_humidity;BME280_pressure;Samples;Min_cycle;Max_cycle;Signal;HPM_P1;HPM_P2
2021/07/30 00:02:13;;;;;;;16.05;7.40;;;16.10;72.80;;;;;;5052860;28;20096;-37
2021/07/30 00:04:38;;;;;;;15.18;5.80;;;16.10;72.40;;;;;;5052699;28;20020;-36
2021/07/30 00:07:04;;;;;;;14.05;6.20;;;16.10;72.70;;;;;;5052993;28;20029;-37
2021/07/30 00:09:30;;;;;;;16.38;6.10;;;16.00;73.10;;;;;;5053234;28;20518;-37
2021/07/30 00:11:56;;;;;;;16.30;5.72;;;16.00;73.20;;;;;;5052931;28;20029;-37
2021/07/30 00:14:21;;;;;;;13.77;6.28;;;16.10;72.60;;;;;;5052909;28;20412;-37
2021/07/30 00:16:47;;;;;;;18.38;7.50;;;16.10;72.60;;;;;;5052863;28;20028;-37
2021/07/30 00:19:13;;;;;;;19.17;6.97;;;16.00;72.90;;;;;;5052661;28;20025;-37
2021/07/30 00:21:38;;;;;;;18.08;7.43;;;16.00;73.30;;;;;;5052749;28;20377;-37
2021/07/30 00:24:04;;;;;;;14.10;6.53;;;16.00;73.20;;;;;;5052493;28;20036;-37
2021/07/30 00:26:30;;;;;;;13.40;6.13;;;15.90;73.20;;;;;;5052632;28;20415;-37
2021/07/30 00:28:55;;;;;;;18.48;7.10;;;15.90;73.40;;;;;;5051134;28;20108;-37
2021/07/30 00:31:21;;;;;;;12.48;5.70;;;15.90;73.30;;;;;;5052321;28;20434;-37
2021/07/30 00:33:47;;;;;;;13.13;6.70;;;15.80;73.50;;;;;;5051147;28;20246;-37
2021/07/30 00:36:12;;;;;;;12.88;5.70;;;15.80;73.60;;;;;;5052461;28;20021;-37
2021/07/30 00:38:38;;;;;;;20.80;6.35;;;15.80;73.60;;;;;;5052466;28;20025;-42
2021/07/30 00:41:04;;;;;;;12.93;5.40;;;15.70;74.00;;;;;;5052523;28;20087;-37
2021/07/30 00:43:29;;;;;;;8.38;5.30;;;15.70;74.20;;;;;;5052560;28;20032;-37
2021/07/30 00:45:59;;;;;;;12.48;5.20;;;15.70;74.30;;;;;;5052507;28;20052;-37
2021/07/30 00:48:25;;;;;;;12.13;5.28;;;15.80;74.30;;;;;;5052717;28;20055;-37
2021/07/30 00:50:52;;;;;;;12.88;5.18;;;15.70;74.30;;;;;;5052281;28;20029;-37
2021/07/30 00:53:18;;;;;;;9.98;5.13;;;15.70;74.40;;;;;;5052249;28;20036;-37
2021/07/30 00:55:46;;;;;;;11.30;5.10;;;15.70;74.60;;;;;;5051516;28;20017;-37
2021/07/30 00:58:13;;;;;;;12.80;5.57;;;15.60;75.00;;;;;;5052463;28;20017;-37
2021/07/30 01:00:40;;;;;;;14.23;5.55;;;15.70;74.20;;;;;;5052202;28;20021;-37
2021/07/30 01:03:05;;;;;;;12.73;5.10;;;15.60;75.10;;;;;;5052524;28;20039;-37
2021/07/30 01:05:31;;;;;;;13.63;5.18;;;15.50;75.30;;;;;;5052367;28;20032;-37
2021/07/30 01:07:58;;;;;;;17.08;6.22;;;15.50;75.20;;;;;;5052634;28;20032;-37
2021/07/30 01:10:24;;;;;;;13.35;5.88;;;15.50;75.30;;;;;;5052238;28;20449;-37
2021/07/30 01:12:49;;;;;;;19.60;7.57;;;15.60;74.80;;;;;;5052115;28;20032;-37
2021/07/30 01:15:15;;;;;;;14.88;7.55;;;15.60;75.10;;;;;;5052734;28;20028;-37
2021/07/30 01:17:41;;;;;;;10.70;6.07;;;15.60;75.10;;;;;;5055849;28;20071;-37
2021/07/30 01:20:10;;;;;;;15.95;5.72;;;15.60;75.30;;;;;;5055438;28;20489;-37
2021/07/30 01:22:51;;;;;;;11.10;5.03;;;15.50;75.50;;;;;;5055782;28;20018;-37
2021/07/30 01:25:18;;;;;;;13.60;5.32;;;15.50;75.40;;;;;;5055853;28;20027;-37
2021/07/30 01:27:44;;;;;;;17.20;5.60;;;15.40;75.40;;;;;;5055346;28;20063;-37
2021/07/30 01:30:11;;;;;;;14.60;6.30;;;15.50;74.90;;;;;;5055202;28;20053;-37
2021/07/30 01:32:37;;;;;;;18.38;6.82;;;15.50;75.10;;;;;;5055909;28;20186;-37
2021/07/30 01:35:03;;;;;;;24.15;7.28;;;15.70;74.60;;;;;;5055489;28;20119;-37
2021/07/30 01:37:30;;;;;;;12.60;6.72;;;15.70;74.20;;;;;;5055562;28;20032;-37
2021/07/30 01:39:56;;;;;;;18.73;7.07;;;15.80;74.20;;;;;;5055379;28;20473;-36
2021/07/30 01:42:21;;;;;;;7.78;5.10;;;15.80;73.80;;;;;;5055531;28;20024;-37
2021/07/30 01:44:47;;;;;;;14.40;5.57;;;15.90;73.70;;;;;;5055401;28;20032;-37
2021/07/30 01:47:13;;;;;;;13.70;5.88;;;16.00;73.30;;;;;;5055423;28;20020;-37
2021/07/30 01:49:39;;;;;;;14.77;5.38;;;16.00;73.30;;;;;;5055659;28;20033;-37
2021/07/30 01:52:05;;;;;;;16.40;6.03;;;16.10;72.90;;;;;;5055388;28;20035;-37
2021/07/30 01:54:30;;;;;;;11.32;4.88;;;16.10;72.90;;;;;;5055402;28;20028;-37
2021/07/30 01:56:56;;;;;;;10.70;4.60;;;16.20;72.40;;;;;;5055451;28;20033;-37
2021/07/30 01:59:21;;;;;;;11.38;5.25;;;16.20;72.70;;;;;;5055544;28;20075;-37
2021/07/30 02:01:47;;;;;;;14.38;5.45;;;16.30;72.20;;;;;;5055571;28;20035;-37
2021/07/30 02:04:13;;;;;;;11.15;4.57;;;16.30;71.90;;;;;;5055246;28;20021;-37
2021/07/30 02:06:38;;;;;;;7.68;5.03;;;16.40;71.80;;;;;;5054923;28;20024;-37
2021/07/30 02:09:04;;;;;;;7.00;4.18;;;16.30;72.20;;;;;;5055003;28;20033;-37
2021/07/30 02:11:29;;;;;;;11.13;4.55;;;16.30;72.50;;;;;;5055220;28;20381;-37
2021/07/30 02:16:39;;;;;;;14.18;4.65;;;16.30;72.00;;;;;;5054963;28;20453;-37
2021/07/30 02:19:05;;;;;;;7.30;3.90;;;16.40;71.50;;;;;;5054812;28;20049;-37
2021/07/30 02:21:31;;;;;;;11.93;5.13;;;16.60;71.00;;;;;;5054511;28;20044;-37
2021/07/30 02:23:56;;;;;;;8.77;4.45;;;16.70;70.70;;;;;;5054729;28;20423;-37
2021/07/30 02:26:22;;;;;;;15.88;4.63;;;16.70;70.90;;;;;;5052779;28;20025;-37
2021/07/30 02:28:47;;;;;;;8.75;4.38;;;16.70;70.60;;;;;;5054133;28;20059;-37
2021/07/30 02:31:14;;;;;;;14.93;4.88;;;16.70;70.70;;;;;;5054401;28;20106;-37
2021/07/30 02:33:40;;;;;;;11.07;4.60;;;16.70;70.80;;;;;;5054544;28;20029;-37
2021/07/30 02:36:06;;;;;;;12.57;4.90;;;16.60;70.70;;;;;;5054657;28;20021;-37
2021/07/30 02:38:31;;;;;;;16.33;4.50;;;16.60;70.90;;;;;;5054385;28;20078;-37
2021/07/30 02:40:57;;;;;;;5.70;4.00;;;16.60;70.80;;;;;;5054506;28;20161;-37
2021/07/30 02:43:22;;;;;;;10.57;4.38;;;16.60;70.80;;;;;;5054705;28;20393;-37
2021/07/30 02:45:48;;;;;;;9.38;4.93;;;16.60;70.90;;;;;;5054344;28;20021;-37
2021/07/30 02:48:14;;;;;;;10.70;4.47;;;16.50;71.30;;;;;;5052831;28;20029;-37
2021/07/30 02:50:39;;;;;;;8.82;4.03;;;16.50;71.50;;;;;;5054011;28;20071;-37
2021/07/30 02:53:05;;;;;;;8.20;4.10;;;16.30;72.50;;;;;;5054110;28;20488;-37
2021/07/30 02:55:30;;;;;;;7.78;4.40;;;16.30;72.60;;;;;;5054329;28;20131;-38
2021/07/30 02:57:56;;;;;;;9.52;5.22;;;16.30;73.00;;;;;;5053997;28;20361;-37
2021/07/30 03:00:22;;;;;;;15.50;5.32;;;16.20;72.90;;;;;;5054433;28;20369;-37
2021/07/30 03:02:49;;;;;;;5.40;4.22;;;16.10;73.40;;;;;;5053691;28;20104;-37
2021/07/30 03:05:15;;;;;;;12.00;4.88;;;16.10;73.30;;;;;;5053620;28;20029;-36
2021/07/30 03:07:40;;;;;;;14.05;6.45;;;16.00;73.90;;;;;;5054230;28;20035;-37
2021/07/30 03:10:06;;;;;;;10.73;4.90;;;16.10;73.90;;;;;;5053793;28;20047;-37
2021/07/30 03:12:32;;;;;;;13.48;4.60;;;16.10;74.00;;;;;;5053696;28;20435;-37
2021/07/30 03:14:57;;;;;;;11.07;4.78;;;16.00;74.50;;;;;;5053659;28;20068;-37
2021/07/30 03:17:23;;;;;;;9.27;4.47;;;16.00;74.50;;;;;;5053736;28;20017;-37
2021/07/30 03:19:48;;;;;;;14.75;5.40;;;15.90;74.80;;;;;;5053364;28;20025;-37
2021/07/30 03:22:14;;;;;;;10.93;4.45;;;15.80;75.20;;;;;;5054201;28;20377;-36
2021/07/30 03:24:39;;;;;;;9.25;4.82;;;15.80;75.00;;;;;;5053613;28;20056;-37
2021/07/30 03:27:06;;;;;;;10.20;5.13;;;15.80;75.60;;;;;;5053674;28;20098;-37
2021/07/30 03:29:31;;;;;;;13.20;5.40;;;15.80;75.70;;;;;;5053141;28;20048;-37
2021/07/30 03:31:57;;;;;;;11.05;5.40;;;15.80;76.20;;;;;;5053655;28;20037;-37
2021/07/30 03:34:22;;;;;;;13.15;5.53;;;15.80;76.20;;;;;;5053261;28;20078;-37
2021/07/30 03:36:48;;;;;;;11.55;5.18;;;15.80;76.40;;;;;;5053341;28;20032;-37
2021/07/30 03:39:14;;;;;;;11.98;4.65;;;15.80;76.60;;;;;;5052985;28;20108;-36
2021/07/30 03:41:39;;;;;;;13.02;4.82;;;15.80;76.40;;;;;;5053439;28;20048;-37
2021/07/30 03:44:05;;;;;;;7.68;4.65;;;15.80;77.10;;;;;;5053148;28;20516;-36
2021/07/30 03:46:31;;;;;;;12.82;5.53;;;15.80;76.80;;;;;;5053348;28;20114;-37
2021/07/30 03:48:57;;;;;;;10.57;4.97;;;15.80;76.40;;;;;;5053418;28;20040;-37
2021/07/30 03:51:22;;;;;;;10.45;5.82;;;15.80;76.40;;;;;;5053378;28;20027;-37
2021/07/30 03:53:48;;;;;;;10.27;5.15;;;15.80;76.60;;;;;;5052933;28;20151;-47
2021/07/30 03:56:14;;;;;;;9.60;4.82;;;15.70;76.80;;;;;;5052899;28;20445;-51
2021/07/30 03:58:41;;;;;;;12.02;4.68;;;15.70;76.70;;;;;;5053087;28;20025;-50
2021/07/30 04:01:08;;;;;;;8.88;5.03;;;15.80;76.30;;;;;;5053323;28;20112;-49
2021/07/30 04:03:33;;;;;;;10.90;6.38;;;15.80;76.30;;;;;;5052976;28;20032;-49
2021/07/30 04:06:03;;;;;;;9.95;4.32;;;15.60;76.70;;;;;;5052762;28;20056;-48
2021/07/30 04:08:29;;;;;;;8.82;5.97;;;15.70;76.60;;;;;;5052963;28;20021;-48
2021/07/30 04:10:55;;;;;;;13.68;5.55;;;15.70;76.50;;;;;;5052787;28;20031;-47
2021/07/30 04:13:20;;;;;;;8.70;4.22;;;15.70;76.50;;;;;;5052651;28;20484;-47
2021/07/30 04:15:46;;;;;;;9.90;4.53;;;15.80;76.40;;;;;;5052618;28;20025;-47
2021/07/30 04:18:12;;;;;;;11.52;4.10;;;15.70;76.80;;;;;;5051540;28;20461;-49
2021/07/30 04:20:40;;;;;;;22.23;4.68;;;15.70;76.30;;;;;;5052607;28;20477;-50
2021/07/30 04:23:07;;;;;;;7.78;4.93;;;15.80;76.40;;;;;;5053164;28;20100;-51
2021/07/30 04:25:32;;;;;;;9.98;4.82;;;15.70;76.40;;;;;;5052604;28;20124;-48
2021/07/30 04:27:58;;;;;;;15.48;4.90;;;15.80;76.40;;;;;;5053111;28;20057;-49
2021/07/30 04:30:24;;;;;;;12.60;3.95;;;15.80;75.90;;;;;;5051138;28;20052;-50
2021/07/30 04:32:50;;;;;;;10.15;4.78;;;15.80;75.70;;;;;;5052939;28;20061;-49
2021/07/30 04:35:16;;;;;;;10.57;4.57;;;16.00;75.50;;;;;;5052453;28;20025;-37
2021/07/30 04:37:42;;;;;;;12.07;5.40;;;16.10;75.30;;;;;;5052812;28;20355;-37
2021/07/30 04:40:08;;;;;;;9.00;4.57;;;16.00;75.80;;;;;;5052426;28;20040;-37
2021/07/30 04:42:33;;;;;;;8.85;4.40;;;16.10;75.40;;;;;;5052417;28;20029;-38
2021/07/30 04:44:59;;;;;;;11.07;4.55;;;16.10;75.30;;;;;;5052888;28;20180;-37
2021/07/30 04:47:24;;;;;;;16.73;5.50;;;16.00;75.70;;;;;;5053153;28;20029;-37
2021/07/30 04:49:50;;;;;;;11.63;4.85;;;16.10;75.40;;;;;;5052424;28;20119;-36
2021/07/30 04:52:16;;;;;;;13.75;5.88;;;16.00;75.90;;;;;;5056543;28;20381;-37
2021/07/30 04:54:41;;;;;;;13.07;4.97;;;16.10;75.60;;;;;;5056291;28;20017;-37
2021/07/30 04:57:10;;;;;;;18.15;5.13;;;16.00;76.00;;;;;;5056135;28;20079;-37
2021/07/30 04:59:36;;;;;;;15.10;6.90;;;15.80;76.70;;;;;;5054752;28;20052;-37
2021/07/30 05:02:02;;;;;;;9.23;5.18;;;15.80;76.80;;;;;;5056370;28;20145;-37
2021/07/30 05:04:28;;;;;;;9.70;5.00;;;15.90;76.30;;;;;;5055938;28;20029;-37
2021/07/30 05:06:54;;;;;;;11.70;4.57;;;15.90;76.10;;;;;;5056241;28;20155;-37
2021/07/30 05:09:19;;;;;;;8.98;4.72;;;16.00;76.40;;;;;;5055915;28;20053;-37
2021/07/30 05:11:45;;;;;;;14.32;6.05;;;15.80;76.80;;;;;;5056139;28;20037;-37
2021/07/30 05:14:11;;;;;;;15.38;5.18;;;16.00;76.40;;;;;;5055572;28;20449;-37
2021/07/30 05:16:36;;;;;;;12.55;5.25;;;16.00;76.20;;;;;;5055822;28;20021;-37
2021/07/30 05:19:02;;;;;;;9.75;5.32;;;16.00;76.30;;;;;;5055732;28;20055;-37
2021/07/30 05:21:28;;;;;;;9.55;5.25;;;16.10;76.10;;;;;;5055476;28;20024;-37
2021/07/30 05:23:53;;;;;;;14.20;5.40;;;16.00;76.50;;;;;;5056176;28;20140;-37
2021/07/30 05:26:19;;;;;;;13.35;5.68;;;16.10;76.60;;;;;;5055597;28;20021;-37
2021/07/30 05:28:44;;;;;;;13.07;5.30;;;16.20;76.20;;;;;;5054335;28;20029;-37
2021/07/30 05:31:17;;;;;;;9.68;4.72;;;16.10;76.50;;;;;;5055434;28;20087;-36
2021/07/30 05:33:44;;;;;;;10.52;4.88;;;16.20;76.50;;;;;;5055480;28;20492;-37
2021/07/30 05:36:14;;;;;;;11.80;5.00;;;16.10;77.00;;;;;;5054223;28;20029;-37
2021/07/30 05:38:40;;;;;;;10.38;4.65;;;16.10;77.00;;;;;;5054139;28;20018;-37
2021/07/30 05:41:13;;;;;;;11.10;4.95;;;16.30;76.50;;;;;;5055843;28;20385;-37
2021/07/30 05:43:39;;;;;;;12.93;5.43;;;16.30;76.00;;;;;;5053920;28;20032;-37
2021/07/30 05:46:06;;;;;;;11.20;5.35;;;16.40;75.60;;;;;;5054798;28;20039;-37
2021/07/30 05:48:32;;;;;;;13.07;4.50;;;16.50;75.40;;;;;;5053139;28;20384;-37
2021/07/30 05:50:57;;;;;;;10.85;5.18;;;16.50;75.10;;;;;;5055145;28;20045;-37
2021/07/30 05:53:23;;;;;;;8.48;4.93;;;16.60;74.40;;;;;;5054753;28;20108;-37
2021/07/30 05:55:49;;;;;;;7.90;4.45;;;16.50;74.60;;;;;;5054566;28;20013;-37
2021/07/30 05:58:15;;;;;;;10.40;4.50;;;16.50;74.90;;;;;;5054587;28;20028;-37
2021/07/30 06:00:41;;;;;;;10.40;4.50;;;16.50;74.90;;;;;;5053987;28;20067;-37
2021/07/30 06:03:07;;;;;;;13.75;4.60;;;16.50;75.10;;;;;;5054228;28;20381;-37
2021/07/30 06:05:32;;;;;;;11.23;4.00;;;16.50;74.90;;;;;;5054755;28;20029;-37
2021/07/30 06:07:59;;;;;;;11.32;4.70;;;16.50;74.80;;;;;;5054448;28;20029;-37
2021/07/30 06:10:25;;;;;;;13.75;5.13;;;16.50;74.80;;;;;;5054328;28;20028;-36
2021/07/30 06:12:51;;;;;;;11.20;4.60;;;16.50;74.90;;;;;;5054600;28;20063;-36
2021/07/30 06:15:16;;;;;;;12.10;4.32;;;16.60;75.10;;;;;;5054039;28;20053;-36
2021/07/30 06:17:43;;;;;;;7.45;3.95;;;16.80;74.60;;;;;;5054115;28;20096;-36
2021/07/30 06:20:10;;;;;;;8.25;4.10;;;16.80;74.00;;;;;;5054478;28;20029;-37
2021/07/30 06:22:39;;;;;;;11.55;4.35;;;16.90;74.50;;;;;;5052813;28;20516;-36
2021/07/30 06:25:05;;;;;;;14.07;5.03;;;17.10;73.60;;;;;;5054119;28;20501;-36
2021/07/30 06:27:34;;;;;;;9.63;4.85;;;17.30;72.70;;;;;;5054390;28;20029;-36
2021/07/30 06:30:06;;;;;;;14.88;4.55;;;17.30;72.00;;;;;;5053973;28;20111;-36
2021/07/30 06:32:32;;;;;;;7.07;3.40;;;17.40;72.20;;;;;;5053798;28;20079;-36
2021/07/30 06:34:58;;;;;;;7.95;3.25;;;17.50;71.70;;;;;;5054062;28;20124;-36
2021/07/30 06:37:24;;;;;;;11.38;3.85;;;17.60;71.30;;;;;;5054247;28;20132;-36
2021/07/30 06:39:49;;;;;;;13.15;4.55;;;17.80;70.10;;;;;;5054027;28;20065;-36
2021/07/30 06:42:15;;;;;;;10.88;3.80;;;17.80;70.00;;;;;;5054228;28;20461;-36
2021/07/30 06:44:41;;;;;;;11.80;3.65;;;17.90;70.00;;;;;;5053810;28;20096;-36
2021/07/30 06:47:06;;;;;;;12.00;3.75;;;18.10;69.10;;;;;;5053721;28;20555;-37
2021/07/30 06:49:36;;;;;;;7.30;3.22;;;18.10;68.90;;;;;;5053276;28;20028;-36
2021/07/30 06:52:05;;;;;;;8.88;3.50;;;18.30;68.50;;;;;;5053860;28;20484;-36
2021/07/30 06:54:33;;;;;;;9.55;3.58;;;18.20;68.20;;;;;;5054177;28;20056;-36
2021/07/30 06:57:00;;;;;;;12.30;3.38;;;18.60;67.30;;;;;;5053662;28;20350;-37
2021/07/30 06:59:25;;;;;;;11.38;3.88;;;18.50;67.80;;;;;;5053283;28;20021;-36
2021/07/30 07:01:51;;;;;;;11.68;3.65;;;18.70;67.30;;;;;;5053091;28;20075;-37
2021/07/30 07:04:16;;;;;;;9.57;3.33;;;18.70;67.40;;;;;;5051787;28;20079;-36
2021/07/30 07:06:42;;;;;;;7.53;3.15;;;19.10;65.60;;;;;;5053010;28;20057;-36
2021/07/30 07:09:08;;;;;;;9.68;2.92;;;19.10;65.60;;;;;;5053678;28;20384;-36
2021/07/30 07:11:33;;;;;;;4.70;3.50;;;19.20;64.90;;;;;;5053104;28;20064;-36
2021/07/30 07:13:59;;;;;;;11.60;2.97;;;19.30;64.80;;;;;;5052613;28;20033;-35
2021/07/30 07:16:25;;;;;;;8.20;3.05;;;19.00;65.20;;;;;;5052935;28;20017;-39
2021/07/30 07:18:50;;;;;;;8.82;3.97;;;19.00;64.80;;;;;;5053352;28;20032;-36
2021/07/30 07:21:16;;;;;;;5.60;3.05;;;19.10;65.10;;;;;;5053279;28;20214;-36
2021/07/30 07:23:42;;;;;;;8.23;3.20;;;19.10;65.70;;;;;;5053015;28;20025;-36
2021/07/30 07:26:08;;;;;;;13.20;4.30;;;19.10;65.30;;;;;;5052193;28;20029;-35
2021/07/30 07:28:34;;;;;;;7.97;3.67;;;19.30;64.20;;;;;;5052744;28;20090;-36
2021/07/30 07:30:59;;;;;;;6.35;2.92;;;19.50;64.00;;;;;;5052388;28;20044;-36
2021/07/30 07:33:25;;;;;;;8.95;3.60;;;19.70;63.10;;;;;;5052168;28;20392;-36
2021/07/30 07:35:53;;;;;;;8.50;2.90;;;19.60;63.90;;;;;;5052727;28;20377;-37
2021/07/30 07:38:19;;;;;;;5.22;2.88;;;20.20;61.50;;;;;;5051907;28;20164;-39
2021/07/30 07:40:45;;;;;;;9.10;2.75;;;20.10;60.90;;;;;;5051012;28;20039;-36
2021/07/30 07:43:11;;;;;;;8.18;2.90;;;20.10;60.90;;;;;;5052348;28;20108;-37
2021/07/30 07:45:37;;;;;;;6.70;3.10;;;19.90;60.60;;;;;;5052346;28;20155;-37
2021/07/30 07:48:03;;;;;;;9.07;3.03;;;20.20;60.50;;;;;;5052665;28;20056;-37
2021/07/30 07:50:29;;;;;;;6.30;2.42;;;20.60;59.10;;;;;;5052903;28;20056;-37
2021/07/30 07:52:54;;;;;;;5.00;2.42;;;20.90;57.70;;;;;;5052263;28;20021;-37
2021/07/30 07:55:20;;;;;;;10.63;3.30;;;21.40;55.10;;;;;;5052189;28;20029;-36
2021/07/30 07:57:45;;;;;;;5.43;2.05;;;21.30;55.00;;;;;;5052239;28;20032;-37
2021/07/30 08:00:12;;;;;;;5.30;2.03;;;21.30;55.00;;;;;;5051217;28;20056;-36
2021/07/30 08:02:38;;;;;;;5.45;2.25;;;22.00;52.90;;;;;;5052616;28;20071;-37
2021/07/30 08:05:04;;;;;;;4.32;2.17;;;21.80;51.80;;;;;;5052276;28;20029;-37
2021/07/30 08:07:29;;;;;;;4.20;2.40;;;21.70;53.10;;;;;;5052305;28;20040;-37
2021/07/30 08:09:55;;;;;;;5.80;2.22;;;22.30;51.20;;;;;;5052046;28;20025;-37
2021/07/30 08:12:21;;;;;;;3.47;2.00;;;22.20;51.50;;;;;;5051966;28;20084;-37
2021/07/30 08:14:46;;;;;;;4.47;2.15;;;22.10;51.90;;;;;;5050230;28;20036;-37
2021/07/30 08:17:12;;;;;;;7.43;2.25;;;22.30;51.40;;;;;;5051719;28;20025;-36
2021/07/30 08:19:38;;;;;;;7.75;3.88;;;22.30;50.90;;;;;;5051080;28;20491;-37
2021/07/30 08:22:06;;;;;;;6.90;2.60;;;21.80;51.90;;;;;;5051524;28;20381;-37
2021/07/30 08:24:32;;;;;;;11.02;2.55;;;22.40;51.20;;;;;;5051960;28;20021;-37
2021/07/30 08:26:57;;;;;;;5.90;1.90;;;22.60;50.00;;;;;;5055567;28;20068;-37
2021/07/30 08:29:23;;;;;;;4.93;2.63;;;23.00;49.50;;;;;;5054699;28;20460;-36
2021/07/30 08:31:49;;;;;;;3.63;2.03;;;23.30;49.10;;;;;;5055992;28;20051;-36
2021/07/30 08:34:15;;;;;;;3.38;2.67;;;22.90;49.00;;;;;;5055566;28;20381;-36
2021/07/30 08:36:42;;;;;;;10.13;3.13;;;23.40;47.60;;;;;;5055745;28;20028;-36
2021/07/30 08:39:08;;;;;;;4.80;2.00;;;24.10;45.20;;;;;;5055401;28;20416;-36
2021/07/30 08:41:35;;;;;;;2.85;1.92;;;23.80;46.30;;;;;;5055714;28;20021;-36
2021/07/30 08:44:00;;;;;;;4.32;2.05;;;23.30;47.90;;;;;;5056543;28;20392;-36
2021/07/30 08:46:27;;;;;;;6.85;2.28;;;24.10;45.20;;;;;;5054295;28;20032;-37
2021/07/30 08:48:55;;;;;;;4.47;1.92;;;23.70;46.70;;;;;;5056163;28;20029;-36
2021/07/30 08:51:22;;;;;;;4.25;1.85;;;24.10;46.90;;;;;;5055562;28;20044;-37
2021/07/30 08:53:49;;;;;;;6.45;2.60;;;24.30;46.50;;;;;;5055358;28;20056;-36
2021/07/30 08:56:15;;;;;;;2.67;1.80;;;24.20;45.50;;;;;;5055732;28;20031;-37
2021/07/30 08:58:42;;;;;;;4.43;2.00;;;23.20;46.20;;;;;;5055414;28;20105;-36
2021/07/30 09:01:10;;;;;;;4.60;2.10;;;23.30;47.80;;;;;;5055328;28;20021;-38
2021/07/30 09:03:37;;;;;;;6.15;2.35;;;23.30;47.50;;;;;;5056045;28;20021;-38
2021/07/30 09:06:22;;;;;;;4.50;2.13;;;24.30;44.30;;;;;;5055503;28;20025;-38
2021/07/30 09:08:53;;;;;;;3.47;2.03;;;24.40;44.70;;;;;;5055618;28;20051;-37
2021/07/30 09:11:34;;;;;;;3.08;1.83;;;23.90;45.30;;;;;;5055428;28;20055;-38
2021/07/30 09:14:02;;;;;;;4.28;2.03;;;24.60;43.70;;;;;;5055381;28;20166;-37
2021/07/30 09:16:28;;;;;;;4.93;1.92;;;25.20;42.60;;;;;;5055155;28;20033;-37
2021/07/30 09:18:54;;;;;;;4.13;2.83;;;25.70;40.30;;;;;;5056241;28;20017;-38
2021/07/30 09:21:30;;;;;;;4.72;2.00;;;24.90;41.80;;;;;;5055678;28;20047;-41
2021/07/30 09:24:02;;;;;;;2.13;1.63;;;25.00;41.40;;;;;;5054159;28;20365;-37
2021/07/30 09:26:35;;;;;;;7.20;3.22;;;24.50;42.80;;;;;;5053852;28;20033;-37
2021/07/30 09:29:21;;;;;;;5.90;2.05;;;24.50;43.60;;;;;;5054418;28;20025;-37
2021/07/30 09:31:52;;;;;;;5.80;1.92;;;24.90;43.00;;;;;;5054765;28;20053;-38
2021/07/30 09:34:21;;;;;;;6.53;2.20;;;24.40;43.10;;;;;;5054315;28;20082;-38
2021/07/30 09:36:59;;;;;;;4.47;2.28;;;24.00;44.40;;;;;;5054889;28;20013;-37
2021/07/30 09:39:32;;;;;;;3.88;2.13;;;24.60;43.40;;;;;;5055666;28;20031;-37
2021/07/30 09:42:01;;;;;;;5.93;2.70;;;25.20;42.10;;;;;;5055907;28;20021;-37
2021/07/30 09:44:28;;;;;;;4.95;2.15;;;25.50;41.50;;;;;;5054476;28;20021;-39
2021/07/30 09:47:05;;;;;;;4.07;1.98;;;26.10;40.60;;;;;;5054934;28;20128;-37
2021/07/30 09:49:43;;;;;;;7.43;2.05;;;25.80;41.20;;;;;;5053982;28;20495;-37
2021/07/30 09:52:17;;;;;;;6.05;2.15;;;25.40;41.30;;;;;;5054391;28;20032;-37
2021/07/30 09:54:48;;;;;;;5.63;1.98;;;25.10;41.80;;;;;;5054028;28;20106;-37
2021/07/30 09:57:24;;;;;;;3.90;2.00;;;25.70;41.20;;;;;;5054559;28;20025;-37
2021/07/30 09:59:50;;;;;;;5.15;2.03;;;25.30;41.50;;;;;;5053459;28;20025;-37
2021/07/30 10:02:18;;;;;;;1.92;1.80;;;24.60;43.80;;;;;;5053801;28;20025;-37
2021/07/30 10:04:49;;;;;;;5.80;2.58;;;24.80;44.00;;;;;;5054085;28;20017;-37
2021/07/30 10:07:25;;;;;;;4.78;2.33;;;25.10;43.40;;;;;;5054487;28;20355;-37
2021/07/30 10:09:58;;;;;;;4.65;2.47;;;24.40;44.70;;;;;;5054378;28;20118;-37
2021/07/30 10:12:24;;;;;;;5.05;2.10;;;23.90;46.00;;;;;;5055245;28;20029;-36
2021/07/30 10:14:51;;;;;;;8.10;2.60;;;23.90;46.30;;;;;;5052448;28;20048;-36
2021/07/30 10:17:30;;;;;;;3.50;2.42;;;23.80;46.90;;;;;;5053301;28;20025;-36
2021/07/30 10:19:57;;;;;;;6.18;2.00;;;24.10;46.60;;;;;;5053401;28;20516;-36
2021/07/30 10:22:25;;;;;;;3.97;2.20;;;24.30;46.30;;;;;;5051869;28;20146;-36
2021/07/30 10:24:54;;;;;;;6.93;3.30;;;24.20;47.40;;;;;;5053713;28;20060;-36
2021/07/30 10:27:22;;;;;;;5.57;2.15;;;24.80;45.50;;;;;;5053264;28;20519;-36
2021/07/30 10:30:14;;;;;;;6.63;3.42;;;24.50;45.50;;;;;;5053496;28;20059;-36
2021/07/30 10:32:50;;;;;;;8.65;3.22;;;25.30;44.00;;;;;;5053959;28;20445;-37
2021/07/30 10:35:18;;;;;;;6.50;3.95;;;24.70;44.80;;;;;;5053683;28;20068;-37
2021/07/30 10:37:47;;;;;;;7.35;2.50;;;24.50;46.10;;;;;;5052283;28;20025;-37
2021/07/30 10:40:12;;;;;;;4.63;3.03;;;25.40;45.10;;;;;;5053948;28;20021;-37
2021/07/30 10:42:59;;;;;;;11.48;2.97;;;25.60;43.90;;;;;;5053869;28;20025;-38
2021/07/30 10:45:24;;;;;;;3.35;2.60;;;25.80;43.80;;;;;;5053725;28;20029;-37
2021/07/30 10:48:29;;;;;;;8.00;2.53;;;26.30;41.90;;;;;;5052621;28;20112;-37
2021/07/30 10:51:02;;;;;;;4.47;2.65;;;27.20;41.00;;;;;;5053047;28;20033;-37
2021/07/30 10:53:39;;;;;;;7.68;3.15;;;27.20;40.40;;;;;;5053339;28;20028;-37
2021/07/30 10:56:06;;;;;;;9.02;3.08;;;27.00;40.60;;;;;;5053481;28;20060;-37
2021/07/30 10:58:41;;;;;;;9.45;3.25;;;26.80;41.30;;;;;;5052940;28;20100;-37
2021/07/30 11:01:08;;;;;;;3.63;3.03;;;27.10;40.70;;;;;;5053234;28;20377;-37
2021/07/30 11:03:52;;;;;;;3.55;2.33;;;26.30;42.70;;;;;;5053248;28;20013;-37
2021/07/30 11:06:51;;;;;;;7.78;3.05;;;25.60;44.60;;;;;;5053958;28;20029;-37
2021/07/30 11:09:17;;;;;;;4.80;2.70;;;25.40;45.20;;;;;;5047157;28;20505;-37
2021/07/30 11:11:55;;;;;;;5.80;2.42;;;25.50;44.70;;;;;;5052881;28;20052;-37
2021/07/30 11:14:33;;;;;;;7.18;2.75;;;26.30;42.90;;;;;;5052834;28;20060;-43
2021/07/30 11:17:01;;;;;;;8.95;3.33;;;25.80;44.90;;;;;;5052997;28;20079;-36
2021/07/30 11:19:32;;;;;;;4.40;2.65;;;26.20;43.80;;;;;;5053037;28;20021;-37
2021/07/30 11:21:59;;;;;;;9.07;2.45;;;26.30;42.90;;;;;;5053638;28;20096;-37
2021/07/30 11:24:25;;;;;;;9.10;3.05;;;27.50;41.30;;;;;;5053207;28;20550;-37
2021/07/30 11:26:52;;;;;;;5.03;2.20;;;27.40;40.50;;;;;;5052731;28;20021;-37
2021/07/30 11:29:20;;;;;;;5.05;2.28;;;26.80;40.70;;;;;;5052860;28;20039;-38
2021/07/30 11:31:57;;;;;;;5.90;2.50;;;27.10;40.50;;;;;;5052831;28;20052;-37
2021/07/30 11:34:32;;;;;;;3.78;2.30;;;26.90;40.50;;;;;;5053597;28;20024;-38
2021/07/30 11:37:03;;;;;;;4.15;2.55;;;26.40;41.20;;;;;;5036342;28;20052;-37
2021/07/30 11:39:38;;;;;;;3.50;2.15;;;27.00;40.40;;;;;;5051076;28;20037;-37
2021/07/30 11:42:05;;;;;;;6.57;2.47;;;27.30;39.90;;;;;;5053509;28;20053;-36
2021/07/30 11:44:47;;;;;;;4.90;2.85;;;26.80;40.40;;;;;;5053519;28;20086;-36
2021/07/30 11:47:20;;;;;;;5.63;3.20;;;27.30;40.00;;;;;;5054094;28;20028;-36
2021/07/30 11:49:48;;;;;;;5.43;4.38;;;26.70;41.00;;;;;;5054740;28;20086;-40
2021/07/30 11:52:21;;;;;;;9.55;3.75;;;26.40;41.80;;;;;;5034975;28;20061;-38
2021/07/30 11:54:47;;;;;;;6.70;2.83;;;26.70;41.60;;;;;;5052924;28;20032;-37
2021/07/30 11:57:29;;;;;;;7.03;2.47;;;26.40;42.20;;;;;;5052705;28;20457;-37
2021/07/30 11:59:55;;;;;;;7.57;2.92;;;26.10;42.20;;;;;;5051035;28;20037;-38
2021/07/30 12:02:24;;;;;;;5.35;2.88;;;26.30;41.20;;;;;;5052482;28;20071;-37
2021/07/30 12:04:54;;;;;;;5.27;2.67;;;26.90;39.60;;;;;;5052436;28;20025;-37
2021/07/30 12:07:36;;;;;;;8.07;2.80;;;27.00;40.70;;;;;;5052353;28;20033;-38
2021/07/30 12:10:07;;;;;;;2.95;2.30;;;26.70;41.50;;;;;;5052179;28;20025;-36
2021/07/30 12:12:41;;;;;;;4.43;3.17;;;26.40;42.10;;;;;;5052295;28;20040;-36
2021/07/30 12:15:09;;;;;;;7.75;2.97;;;27.20;40.20;;;;;;5052021;28;20376;-36
2021/07/30 12:17:34;;;;;;;4.00;2.53;;;26.30;41.30;;;;;;5052046;28;20021;-36
2021/07/30 12:20:13;;;;;;;8.93;3.65;;;26.10;41.50;;;;;;5051996;28;20021;-36
2021/07/30 12:22:44;;;;;;;7.03;4.63;;;26.90;41.00;;;;;;5052567;28;20118;-37
2021/07/30 12:25:15;;;;;;;7.18;3.50;;;27.50;39.90;;;;;;5052238;28;20028;-37
2021/07/30 12:27:42;;;;;;;4.95;3.13;;;28.60;38.40;;;;;;5052823;28;20163;-37
2021/07/30 12:30:23;;;;;;;4.22;2.50;;;29.50;35.80;;;;;;5051998;28;20393;-36
2021/07/30 12:32:49;;;;;;;4.78;2.70;;;28.60;37.00;;;;;;5052088;28;20377;-36
2021/07/30 12:35:17;;;;;;;9.25;3.65;;;27.10;40.10;;;;;;5051844;28;20029;-37
2021/07/30 12:38:03;;;;;;;3.90;2.75;;;27.00;40.30;;;;;;5052093;28;20044;-37
2021/07/30 12:40:28;;;;;;;5.15;3.42;;;26.70;41.50;;;;;;5051812;28;20021;-36
2021/07/30 12:43:15;;;;;;;5.57;3.20;;;26.20;42.30;;;;;;5051714;28;20025;-37
2021/07/30 12:45:47;;;;;;;6.38;3.15;;;27.00;41.30;;;;;;5052141;28;20021;-36
2021/07/30 12:48:17;;;;;;;4.18;2.95;;;26.60;41.80;;;;;;5053193;28;20105;-37
2021/07/30 12:50:44;;;;;;;7.22;2.35;;;26.80;40.80;;;;;;5052317;28;20052;-38